X  Chiuso Dati meteorologici dell'aviazione (METAR)     LIPX Verona-Villafranca Valerio Catullo Airport
Temperatura
10°C Temperatura
6°C Punto di rugiada
76% Umidità



Vento
23 KM/O
14 MPH
6 M/S
12 KTS



80°
E
Condizioni attuali

Chiaro Pioggia Chiaro Pioggia
Pressione 1005.76 (hPa) - 29.7 (inHg)
Visibilità 6 (miglio) - 9.7 (km)
Aeroporto
Codice-Aeroporto LIPX

Posizione: Verona-Villafranca Valerio Catullo Airport
Distanza: 50 (km)

Metar:
LIPX 261020Z 08012KT 9999 -RA SCT030 BKN060 10/06 Q1006

Ore: 26-02-2024 11:20 CET